Time,TemperatureF,DewpointF,PressureIn,WindDirection,WindDirectionDegrees,WindSpeedMPH,WindSpeedGustMPH,Humidity,HourlyPrecipIn,Conditions,Clouds,dailyrainin,SoftwareType,DateUTC
2013-09-29 00:04:00,44.6,43.0,27.75,WSW,246,4.0,13.0,94,0.00,,---,0.00,VWS V14.01,2013-09-29 05:04:00,
2013-09-29 00:09:00,44.6,42.7,27.75,NW,306,5.0,8.0,93,0.00,,---,0.00,VWS V14.01,2013-09-29 05:09:00,
2013-09-29 00:14:00,44.5,42.6,27.75,WNW,294,4.0,10.0,93,0.00,,---,0.00,VWS V14.01,2013-09-29 05:14:00,
2013-09-29 00:19:00,44.4,42.5,27.76,WNW,282,8.0,9.0,93,0.00,,---,0.00,VWS V14.01,2013-09-29 05:19:00,
2013-09-29 00:24:00,44.3,42.4,27.76,WNW,292,5.0,10.0,93,0.00,,---,0.00,VWS V14.01,2013-09-29 05:24:00,
2013-09-29 00:29:00,44.3,42.1,27.76,West,261,4.0,9.0,92,0.00,,---,0.00,VWS V14.01,2013-09-29 05:29:00,
2013-09-29 00:34:00,44.2,42.0,27.76,West,276,15.0,15.0,92,0.00,,---,0.00,VWS V14.01,2013-09-29 05:34:00,
2013-09-29 00:39:00,44.1,41.7,27.76,West,277,8.0,8.0,91,0.00,,---,0.00,VWS V14.01,2013-09-29 05:39:00,
2013-09-29 00:44:00,44.1,41.7,27.76,WSW,243,7.0,8.0,91,0.00,,---,0.00,VWS V14.01,2013-09-29 05:44:00,
2013-09-29 00:49:00,44.0,41.8,27.77,West,265,1.0,7.0,92,0.00,,---,0.00,VWS V14.01,2013-09-29 05:49:00,
2013-09-29 00:54:00,43.9,41.7,27.77,West,271,1.0,13.0,92,0.00,,---,0.00,VWS V14.01,2013-09-29 05:54:00,
2013-09-29 00:59:00,43.9,41.7,27.77,WNW,294,8.0,8.0,92,0.00,,---,0.00,VWS V14.01,2013-09-29 05:59:00,
2013-09-29 01:04:00,43.8,41.6,27.77,West,269,4.0,6.0,92,0.00,,---,0.00,VWS V14.01,2013-09-29 06:04:00,
2013-09-29 01:10:00,43.7,41.5,27.77,WNW,287,21.0,21.0,92,0.00,,---,0.00,VWS V14.01,2013-09-29 06:10:00,
2013-09-29 01:15:00,43.8,41.6,27.77,West,273,8.0,9.0,92,0.00,,---,0.00,VWS V14.01,2013-09-29 06:15:00,
2013-09-29 01:20:00,44.0,41.5,27.78,West,263,7.0,7.0,91,0.00,,---,0.00,VWS V14.01,2013-09-29 06:20:00,
2013-09-29 01:25:00,44.0,41.5,27.78,West,279,4.0,10.0,91,0.00,,---,0.00,VWS V14.01,2013-09-29 06:25:00,
2013-09-29 01:30:00,44.1,41.7,27.78,WSW,242,4.0,6.0,91,0.00,,---,0.00,VWS V14.01,2013-09-29 06:30:00,
2013-09-29 01:35:00,43.9,41.5,27.79,SSW,210,5.0,7.0,91,0.00,,---,0.00,VWS V14.01,2013-09-29 06:35:00,
2013-09-29 01:40:00,44.1,41.7,27.79,WSW,240,5.0,14.0,91,0.00,,---,0.00,VWS V14.01,2013-09-29 06:40:00,
2013-09-29 01:45:00,44.2,41.7,27.79,WNW,285,2.0,11.0,91,0.00,,---,0.00,VWS V14.01,2013-09-29 06:45:00,
2013-09-29 01:50:00,44.1,41.7,27.80,West,264,2.0,9.0,91,0.00,,---,0.00,VWS V14.01,2013-09-29 06:50:00,
2013-09-29 01:55:00,43.9,41.7,27.80,WNW,294,8.0,10.0,92,0.00,,---,0.00,VWS V14.01,2013-09-29 06:55:00,
2013-09-29 02:00:00,43.7,41.5,27.80,WNW,289,7.0,7.0,92,0.00,,---,0.00,VWS V14.01,2013-09-29 07:00:00,
2013-09-29 02:05:00,43.5,41.3,27.80,WNW,284,3.0,3.0,92,0.00,,---,0.00,VWS V14.01,2013-09-29 07:05:00,
2013-09-29 02:10:00,43.3,41.1,27.80,West,263,4.0,5.0,92,0.00,,---,0.00,VWS V14.01,2013-09-29 07:10:00,
2013-09-29 02:16:00,43.2,41.0,27.80,West,263,1.0,5.0,92,0.00,,---,0.00,VWS V14.01,2013-09-29 07:16:00,
2013-09-29 02:21:00,43.1,41.2,27.80,West,278,2.0,7.0,93,0.00,,---,0.00,VWS V14.01,2013-09-29 07:21:00,
2013-09-29 02:26:00,42.9,41.0,27.80,West,271,6.0,6.0,93,0.00,,---,0.00,VWS V14.01,2013-09-29 07:26:00,
2013-09-29 02:31:00,42.8,40.9,27.80,SW,226,3.0,7.0,93,0.00,,---,0.00,VWS V14.01,2013-09-29 07:31:00,
2013-09-29 02:36:00,42.7,41.1,27.81,WSW,252,1.0,6.0,94,0.00,,---,0.00,VWS V14.01,2013-09-29 07:36:00,
2013-09-29 02:41:00,42.7,41.1,27.81,WSW,258,0.0,5.0,94,0.00,,---,0.00,VWS V14.01,2013-09-29 07:41:00,
2013-09-29 02:46:00,42.6,41.0,27.81,SSW,212,1.0,4.0,94,0.00,,---,0.00,VWS V14.01,2013-09-29 07:46:00,
2013-09-29 02:51:00,42.5,40.9,27.81,WSW,250,0.0,0.0,94,0.00,,---,0.00,VWS V14.01,2013-09-29 07:51:00,
2013-09-29 02:57:00,42.4,40.8,27.81,WSW,237,0.0,2.0,94,0.00,,---,0.00,VWS V14.01,2013-09-29 07:57:00,
2013-09-29 03:02:00,42.4,40.8,27.81,SW,223,3.0,4.0,94,0.00,,---,0.00,VWS V14.01,2013-09-29 08:02:00,
2013-09-29 03:07:00,42.4,40.8,27.81,SW,216,2.0,5.0,94,0.00,,---,0.00,VWS V14.01,2013-09-29 08:07:00,
2013-09-29 03:12:00,42.3,40.7,27.81,SW,216,0.0,1.0,94,0.00,,---,0.00,VWS V14.01,2013-09-29 08:12:00,
2013-09-29 03:17:00,42.2,40.6,27.81,SW,218,2.0,2.0,94,0.00,,---,0.00,VWS V14.01,2013-09-29 08:17:00,
2013-09-29 03:23:00,42.1,40.5,27.81,SW,221,0.0,0.0,94,0.00,,---,0.00,VWS V14.01,2013-09-29 08:23:00,
2013-09-29 03:28:00,42.0,40.7,27.81,SW,221,3.0,3.0,95,0.00,,---,0.00,VWS V14.01,2013-09-29 08:28:00,
2013-09-29 03:33:00,41.9,40.6,27.81,SW,221,0.0,2.0,95,0.00,,---,0.00,VWS V14.01,2013-09-29 08:33:00,
2013-09-29 03:38:00,41.9,40.6,27.81,SW,221,1.0,2.0,95,0.00,,---,0.00,VWS V14.01,2013-09-29 08:38:00,
2013-09-29 03:43:00,41.9,40.6,27.81,SW,221,0.0,0.0,95,0.00,,---,0.00,VWS V14.01,2013-09-29 08:43:00,
2013-09-29 03:49:00,41.8,40.2,27.81,SW,221,0.0,0.0,94,0.00,,---,0.00,VWS V14.01,2013-09-29 08:49:00,
2013-09-29 03:54:00,41.6,40.0,27.81,SW,221,0.0,0.0,94,0.00,,---,0.00,VWS V14.01,2013-09-29 08:54:00,
2013-09-29 03:59:00,41.5,40.2,27.81,SW,221,0.0,0.0,95,0.00,,---,0.00,VWS V14.01,2013-09-29 08:59:00,
2013-09-29 04:04:00,41.4,40.1,27.82,SW,221,0.0,0.0,95,0.00,,---,0.00,VWS V14.01,2013-09-29 09:04:00,
2013-09-29 04:09:00,41.3,40.0,27.82,SW,221,0.0,0.0,95,0.00,,---,0.00,VWS V14.01,2013-09-29 09:09:00,
2013-09-29 04:14:00,41.2,39.9,27.82,SW,221,0.0,0.0,95,0.00,,---,0.00,VWS V14.01,2013-09-29 09:14:00,
2013-09-29 04:19:00,41.1,39.8,27.82,SW,221,2.0,2.0,95,0.00,,---,0.00,VWS V14.01,2013-09-29 09:19:00,
2013-09-29 04:24:00,41.0,39.7,27.82,SW,221,0.0,0.0,95,0.00,,---,0.00,VWS V14.01,2013-09-29 09:24:00,
2013-09-29 04:29:00,40.8,39.5,27.82,SW,221,0.0,1.0,95,0.00,,---,0.00,VWS V14.01,2013-09-29 09:29:00,
2013-09-29 04:34:00,40.7,39.4,27.82,SW,221,0.0,0.0,95,0.00,,---,0.00,VWS V14.01,2013-09-29 09:34:00,
2013-09-29 04:40:00,40.5,39.2,27.82,SW,221,0.0,0.0,95,0.00,,---,0.00,VWS V14.01,2013-09-29 09:40:00,
2013-09-29 04:45:00,40.5,39.2,27.82,SW,221,0.0,0.0,95,0.00,,---,0.00,VWS V14.01,2013-09-29 09:45:00,
2013-09-29 04:50:00,40.5,39.2,27.81,SW,221,0.0,0.0,95,0.00,,---,0.00,VWS V14.01,2013-09-29 09:50:00,
2013-09-29 04:55:00,40.7,39.7,27.81,South,188,0.0,0.0,96,0.00,,---,0.00,VWS V14.01,2013-09-29 09:55:00,
2013-09-29 05:00:00,40.9,39.8,27.81,South,188,0.0,0.0,96,0.00,,---,0.00,VWS V14.01,2013-09-29 10:00:00,
2013-09-29 05:05:00,41.0,40.0,27.81,South,191,0.0,1.0,96,0.00,,---,0.00,VWS V14.01,2013-09-29 10:05:00,
2013-09-29 05:11:00,41.2,40.2,27.81,SSW,192,0.0,0.0,96,0.00,,---,0.00,VWS V14.01,2013-09-29 10:11:00,
2013-09-29 05:16:00,41.4,40.3,27.81,SSW,192,0.0,1.0,96,0.00,,---,0.00,VWS V14.01,2013-09-29 10:16:00,
2013-09-29 05:21:00,41.6,40.5,27.81,South,188,0.0,0.0,96,0.00,,---,0.00,VWS V14.01,2013-09-29 10:21:00,
2013-09-29 05:26:00,41.7,40.7,27.81,SSW,209,0.0,0.0,96,0.00,,---,0.00,VWS V14.01,2013-09-29 10:26:00,
2013-09-29 05:32:00,41.8,40.8,27.81,SW,217,3.0,6.0,96,0.00,,---,0.00,VWS V14.01,2013-09-29 10:32:00,
2013-09-29 05:37:00,42.0,40.9,27.81,SSW,200,3.0,3.0,96,0.00,,---,0.00,VWS V14.01,2013-09-29 10:37:00,
2013-09-29 05:42:00,42.2,41.1,27.81,SSW,196,0.0,6.0,96,0.00,,---,0.00,VWS V14.01,2013-09-29 10:42:00,
2013-09-29 05:47:00,42.5,41.4,27.82,SW,223,2.0,3.0,96,0.00,,---,0.00,VWS V14.01,2013-09-29 10:47:00,
2013-09-29 05:52:00,42.6,41.5,27.82,SW,225,0.0,2.0,96,0.00,,---,0.00,VWS V14.01,2013-09-29 10:52:00,
2013-09-29 05:57:00,42.8,41.5,27.82,SW,217,4.0,5.0,95,0.00,,---,0.00,VWS V14.01,2013-09-29 10:57:00,
2013-09-29 06:03:00,42.8,41.5,27.82,SSW,204,4.0,5.0,95,0.00,,---,0.00,VWS V14.01,2013-09-29 11:03:00,
2013-09-29 06:08:00,42.8,41.5,27.82,SSW,210,3.0,4.0,95,0.00,,---,0.00,VWS V14.01,2013-09-29 11:08:00,
2013-09-29 06:13:00,42.8,41.5,27.82,SW,217,6.0,6.0,95,0.00,,---,0.00,VWS V14.01,2013-09-29 11:13:00,
2013-09-29 06:18:00,42.9,41.6,27.83,SW,217,0.0,0.0,95,0.00,,---,0.00,VWS V14.01,2013-09-29 11:18:00,
2013-09-29 06:23:00,42.8,41.2,27.83,SSW,211,0.0,2.0,94,0.00,,---,0.00,VWS V14.01,2013-09-29 11:23:00,
2013-09-29 06:29:00,42.7,41.1,27.83,WSW,238,0.0,2.0,94,0.00,,---,0.00,VWS V14.01,2013-09-29 11:29:00,
2013-09-29 06:34:00,42.7,41.1,27.83,SW,219,3.0,3.0,94,0.00,,---,0.00,VWS V14.01,2013-09-29 11:34:00,
2013-09-29 06:39:00,42.5,40.9,27.83,SW,219,1.0,1.0,94,0.00,,---,0.00,VWS V14.01,2013-09-29 11:39:00,
2013-09-29 06:44:00,42.3,40.7,27.83,SSW,211,0.0,0.0,94,0.00,,---,0.00,VWS V14.01,2013-09-29 11:44:00,
2013-09-29 06:49:00,42.2,40.6,27.84,SSW,209,0.0,1.0,94,0.00,,---,0.00,VWS V14.01,2013-09-29 11:49:00,
2013-09-29 06:54:00,42.0,40.7,27.84,SSW,209,0.0,0.0,95,0.00,,---,0.00,VWS V14.01,2013-09-29 11:54:00,
2013-09-29 06:59:00,42.0,40.7,27.84,SSW,209,0.0,1.0,95,0.00,,---,0.00,VWS V14.01,2013-09-29 11:59:00,
2013-09-29 07:04:00,42.0,40.7,27.84,SSW,209,0.0,0.0,95,0.00,,---,0.00,VWS V14.01,2013-09-29 12:04:00,
2013-09-29 07:09:00,41.9,40.6,27.84,SSW,210,0.0,2.0,95,0.00,,---,0.00,VWS V14.01,2013-09-29 12:09:00,
2013-09-29 07:14:00,41.8,40.5,27.84,SSW,210,0.0,0.0,95,0.00,,---,0.00,VWS V14.01,2013-09-29 12:14:00,
2013-09-29 07:19:00,41.8,40.5,27.84,SSW,211,0.0,0.0,95,0.00,,---,0.00,VWS V14.01,2013-09-29 12:19:00,
2013-09-29 07:25:00,41.9,40.6,27.84,SSW,211,0.0,0.0,95,0.00,,---,0.00,VWS V14.01,2013-09-29 12:25:00,
2013-09-29 07:30:00,41.9,40.6,27.84,SSW,211,0.0,0.0,95,0.00,,---,0.00,VWS V14.01,2013-09-29 12:30:00,
2013-09-29 07:35:00,42.1,40.8,27.84,SSW,211,0.0,0.0,95,0.00,,---,0.00,VWS V14.01,2013-09-29 12:35:00,
2013-09-29 07:40:00,42.5,41.4,27.84,SSW,211,0.0,3.0,96,0.00,,---,0.00,VWS V14.01,2013-09-29 12:40:00,
2013-09-29 07:45:00,42.9,41.6,27.84,SSW,211,0.0,0.0,95,0.00,,---,0.00,VWS V14.01,2013-09-29 12:45:00,
2013-09-29 07:51:00,43.3,42.0,27.85,SW,225,5.0,5.0,95,0.00,,---,0.00,VWS V14.01,2013-09-29 12:51:00,
2013-09-29 07:56:00,43.7,42.4,27.85,SW,221,0.0,0.0,95,0.00,,---,0.00,VWS V14.01,2013-09-29 12:56:00,
2013-09-29 08:01:00,44.1,42.5,27.85,SW,219,1.0,3.0,94,0.00,,---,0.00,VWS V14.01,2013-09-29 13:01:00,
2013-09-29 08:06:00,44.5,42.6,27.85,SSW,207,0.0,1.0,93,0.00,,---,0.00,VWS V14.01,2013-09-29 13:06:00,
2013-09-29 08:11:00,44.9,43.0,27.85,SW,222,1.0,2.0,93,0.00,,---,0.00,VWS V14.01,2013-09-29 13:11:00,
2013-09-29 08:16:00,45.2,43.0,27.85,SW,223,1.0,2.0,92,0.00,,---,0.00,VWS V14.01,2013-09-29 13:16:00,
2013-09-29 08:22:00,45.7,43.5,27.85,SW,231,0.0,0.0,92,0.00,,---,0.00,VWS V14.01,2013-09-29 13:22:00,
2013-09-29 08:27:00,46.1,43.6,27.85,SW,231,2.0,5.0,91,0.00,,---,0.00,VWS V14.01,2013-09-29 13:27:00,
2013-09-29 08:32:00,46.5,43.7,27.85,SW,215,1.0,2.0,90,0.00,,---,0.00,VWS V14.01,2013-09-29 13:32:00,
2013-09-29 08:37:00,46.8,44.0,27.85,SW,232,4.0,6.0,90,0.00,,---,0.00,VWS V14.01,2013-09-29 13:37:00,
2013-09-29 08:42:00,47.1,44.0,27.85,SW,221,0.0,0.0,89,0.00,,---,0.00,VWS V14.01,2013-09-29 13:42:00,
2013-09-29 08:48:00,47.6,44.2,27.85,WSW,243,0.0,4.0,88,0.00,,---,0.00,VWS V14.01,2013-09-29 13:48:00,
2013-09-29 08:53:00,48.1,44.7,27.85,WSW,245,6.0,6.0,88,0.00,,---,0.00,VWS V14.01,2013-09-29 13:53:00,
2013-09-29 08:58:00,48.5,44.8,27.85,SSW,209,1.0,1.0,87,0.00,,---,0.00,VWS V14.01,2013-09-29 13:58:00,
2013-09-29 09:03:00,48.9,45.2,27.85,SSW,206,2.0,4.0,87,0.00,,---,0.00,VWS V14.01,2013-09-29 14:03:00,
2013-09-29 09:08:00,49.2,44.9,27.85,SW,219,0.0,4.0,85,0.00,,---,0.00,VWS V14.01,2013-09-29 14:08:00,
2013-09-29 09:13:00,49.7,45.7,27.85,WSW,257,2.0,5.0,86,0.00,,---,0.00,VWS V14.01,2013-09-29 14:13:00,
2013-09-29 09:18:00,50.3,45.7,27.86,West,267,0.0,0.0,84,0.00,,---,0.00,VWS V14.01,2013-09-29 14:18:00,
2013-09-29 09:24:00,50.7,46.0,27.86,SW,224,3.0,3.0,84,0.00,,---,0.00,VWS V14.01,2013-09-29 14:24:00,
2013-09-29 09:29:00,51.0,45.7,27.86,SSW,204,2.0,3.0,82,0.00,,---,0.00,VWS V14.01,2013-09-29 14:29:00,
2013-09-29 09:34:00,51.3,46.0,27.86,WSW,237,4.0,5.0,82,0.00,,---,0.00,VWS V14.01,2013-09-29 14:34:00,
2013-09-29 09:39:00,51.5,45.9,27.86,SSW,206,0.0,2.0,81,0.00,,---,0.00,VWS V14.01,2013-09-29 14:39:00,
2013-09-29 09:44:00,52.1,47.1,27.86,SW,226,1.0,1.0,83,0.00,,---,0.00,VWS V14.01,2013-09-29 14:44:00,
2013-09-29 09:49:00,52.5,46.2,27.86,SSW,205,0.0,6.0,79,0.00,,---,0.00,VWS V14.01,2013-09-29 14:49:00,
2013-09-29 09:55:00,53.1,46.8,27.86,SSW,211,0.0,0.0,79,0.00,,---,0.00,VWS V14.01,2013-09-29 14:55:00,
2013-09-29 10:00:00,53.7,46.0,27.86,SW,222,0.0,4.0,75,0.00,,---,0.00,VWS V14.01,2013-09-29 15:00:00,
2013-09-29 10:05:00,54.0,46.3,27.86,South,182,2.0,5.0,75,0.00,,---,0.00,VWS V14.01,2013-09-29 15:05:00,
2013-09-29 10:10:00,54.3,46.6,27.86,SW,227,6.0,7.0,75,0.00,,---,0.00,VWS V14.01,2013-09-29 15:10:00,
2013-09-29 10:15:00,54.3,46.9,27.86,SW,222,5.0,5.0,76,0.00,,---,0.00,VWS V14.01,2013-09-29 15:15:00,
2013-09-29 10:20:00,54.8,47.7,27.86,SW,217,2.0,4.0,77,0.00,,---,0.00,VWS V14.01,2013-09-29 15:20:00,
2013-09-29 10:25:00,55.3,46.1,27.86,SSW,207,2.0,8.0,71,0.00,,---,0.00,VWS V14.01,2013-09-29 15:25:00,
2013-09-29 10:30:00,55.6,46.0,27.86,SSW,211,3.0,7.0,70,0.00,,---,0.00,VWS V14.01,2013-09-29 15:30:00,
2013-09-29 10:36:00,56.0,46.0,27.86,West,267,2.0,4.0,69,0.00,,---,0.00,VWS V14.01,2013-09-29 15:36:00,
2013-09-29 10:41:00,56.7,46.7,27.86,WSW,257,0.0,0.0,69,0.00,,---,0.00,VWS V14.01,2013-09-29 15:41:00,
2013-09-29 10:46:00,57.3,46.5,27.86,SW,216,4.0,6.0,67,0.00,,---,0.00,VWS V14.01,2013-09-29 15:46:00,
2013-09-29 10:51:00,57.4,46.2,27.86,SSW,197,4.0,7.0,66,0.00,,---,0.00,VWS V14.01,2013-09-29 15:51:00,
2013-09-29 10:56:00,58.0,46.7,27.86,WSW,256,4.0,4.0,66,0.00,,---,0.00,VWS V14.01,2013-09-29 15:56:00,
2013-09-29 11:01:00,58.7,45.3,27.86,SW,219,3.0,4.0,61,0.00,,---,0.00,VWS V14.01,2013-09-29 16:01:00,
2013-09-29 11:06:00,58.9,45.9,27.86,WSW,242,3.0,4.0,62,0.00,,---,0.00,VWS V14.01,2013-09-29 16:06:00,
2013-09-29 11:12:00,59.0,46.4,27.86,West,267,2.0,5.0,63,0.00,,---,0.00,VWS V14.01,2013-09-29 16:12:00,
2013-09-29 11:17:00,59.3,46.7,27.86,SW,234,4.0,4.0,63,0.00,,---,0.00,VWS V14.01,2013-09-29 16:17:00,
2013-09-29 11:22:00,59.8,45.5,27.86,SW,215,0.0,1.0,59,0.00,,---,0.00,VWS V14.01,2013-09-29 16:22:00,
2013-09-29 11:27:00,60.1,45.7,27.86,SSW,203,0.0,3.0,59,0.00,,---,0.00,VWS V14.01,2013-09-29 16:27:00,
2013-09-29 11:32:00,60.4,45.6,27.86,WSW,242,5.0,7.0,58,0.00,,---,0.00,VWS V14.01,2013-09-29 16:32:00,
2013-09-29 11:37:00,60.6,44.8,27.86,West,261,3.0,7.0,56,0.00,,---,0.00,VWS V14.01,2013-09-29 16:37:00,
2013-09-29 11:42:00,60.8,45.0,27.86,West,269,0.0,3.0,56,0.00,,---,0.00,VWS V14.01,2013-09-29 16:42:00,
2013-09-29 11:48:00,61.2,44.0,27.86,SSW,210,1.0,7.0,53,0.00,,---,0.00,VWS V14.01,2013-09-29 16:48:00,
2013-09-29 11:53:00,61.2,44.4,27.86,SW,229,7.0,8.0,54,0.00,,---,0.00,VWS V14.01,2013-09-29 16:53:00,
2013-09-29 11:58:00,61.4,44.6,27.86,SW,232,1.0,5.0,54,0.00,,---,0.00,VWS V14.01,2013-09-29 16:58:00,
2013-09-29 12:03:00,61.6,43.8,27.86,SW,217,3.0,5.0,52,0.00,,---,0.00,VWS V14.01,2013-09-29 17:03:00,
2013-09-29 12:08:00,61.9,43.6,27.86,SSW,203,1.0,7.0,51,0.00,,---,0.00,VWS V14.01,2013-09-29 17:08:00,
2013-09-29 12:13:00,62.0,43.7,27.86,SW,227,6.0,9.0,51,0.00,,---,0.00,VWS V14.01,2013-09-29 17:13:00,
2013-09-29 12:18:00,62.1,44.8,27.86,WSW,257,2.0,7.0,53,0.00,,---,0.00,VWS V14.01,2013-09-29 17:18:00,
2013-09-29 12:23:00,62.6,43.7,27.86,West,275,6.0,6.0,50,0.00,,---,0.00,VWS V14.01,2013-09-29 17:23:00,
2013-09-29 12:28:00,62.8,44.4,27.86,SSE,148,7.0,7.0,51,0.00,,---,0.00,VWS V14.01,2013-09-29 17:28:00,
2013-09-29 12:33:00,63.0,44.6,27.86,SW,236,1.0,5.0,51,0.00,,---,0.00,VWS V14.01,2013-09-29 17:33:00,
2013-09-29 12:39:00,63.7,45.8,27.86,SSW,211,2.0,2.0,52,0.00,,---,0.00,VWS V14.01,2013-09-29 17:39:00,
2013-09-29 12:44:00,64.2,43.6,27.86,SSW,200,1.0,4.0,47,0.00,,---,0.00,VWS V14.01,2013-09-29 17:44:00,
2013-09-29 12:49:00,63.9,42.2,27.85,WNW,298,2.0,7.0,45,0.00,,---,0.00,VWS V14.01,2013-09-29 17:49:00,
2013-09-29 12:54:00,63.9,43.3,27.85,SW,225,5.0,7.0,47,0.00,,---,0.00,VWS V14.01,2013-09-29 17:54:00,
2013-09-29 12:59:00,64.0,45.0,27.85,WNW,290,6.0,7.0,50,0.00,,---,0.00,VWS V14.01,2013-09-29 17:59:00,
2013-09-29 13:04:00,64.1,42.9,27.85,SW,223,4.0,4.0,46,0.00,,---,0.00,VWS V14.01,2013-09-29 18:04:00,
2013-09-29 13:10:00,64.4,45.4,27.85,West,280,3.0,6.0,50,0.00,,---,0.00,VWS V14.01,2013-09-29 18:10:00,
2013-09-29 13:15:00,64.3,44.2,27.85,SW,235,2.0,3.0,48,0.00,,---,0.00,VWS V14.01,2013-09-29 18:15:00,
2013-09-29 13:20:00,64.1,44.0,27.85,WSW,240,0.0,7.0,48,0.00,,---,0.00,VWS V14.01,2013-09-29 18:20:00,
2013-09-29 13:25:00,64.5,44.9,27.85,West,264,3.0,3.0,49,0.00,,---,0.00,VWS V14.01,2013-09-29 18:25:00,
2013-09-29 13:30:00,64.6,42.8,27.85,WSW,243,4.0,4.0,45,0.00,,---,0.00,VWS V14.01,2013-09-29 18:30:00,
2013-09-29 13:35:00,64.9,44.8,27.84,SW,215,4.0,5.0,48,0.00,,---,0.00,VWS V14.01,2013-09-29 18:35:00,
2013-09-29 13:40:00,65.2,43.9,27.84,NW,316,0.0,3.0,46,0.00,,---,0.00,VWS V14.01,2013-09-29 18:40:00,
2013-09-29 13:45:00,65.5,43.6,27.84,SW,223,6.0,7.0,45,0.00,,---,0.00,VWS V14.01,2013-09-29 18:45:00,
2013-09-29 13:51:00,65.2,42.8,27.84,West,266,1.0,2.0,44,0.00,,---,0.00,VWS V14.01,2013-09-29 18:51:00,
2013-09-29 13:56:00,65.0,42.6,27.84,SSW,194,0.0,4.0,44,0.00,,---,0.00,VWS V14.01,2013-09-29 18:56:00,
2013-09-29 14:01:00,64.8,42.4,27.84,SSW,205,3.0,7.0,44,0.00,,---,0.00,VWS V14.01,2013-09-29 19:01:00,
2013-09-29 14:06:00,64.2,41.8,27.84,SW,216,4.0,8.0,44,0.00,,---,0.00,VWS V14.01,2013-09-29 19:06:00,
2013-09-29 14:11:00,64.4,42.0,27.84,West,274,5.0,10.0,44,0.00,,---,0.00,VWS V14.01,2013-09-29 19:11:00,
2013-09-29 14:16:00,65.1,43.3,27.84,SW,229,1.0,4.0,45,0.00,,---,0.00,VWS V14.01,2013-09-29 19:16:00,
2013-09-29 14:22:00,65.9,42.8,27.84,WNW,286,10.0,10.0,43,0.00,,---,0.00,VWS V14.01,2013-09-29 19:22:00,
2013-09-29 14:27:00,65.9,42.8,27.84,WSW,256,1.0,3.0,43,0.00,,---,0.00,VWS V14.01,2013-09-29 19:27:00,
2013-09-29 14:32:00,66.1,43.6,27.84,SW,224,3.0,9.0,44,0.00,,---,0.00,VWS V14.01,2013-09-29 19:32:00,
2013-09-29 14:37:00,65.9,43.4,27.84,SW,216,3.0,14.0,44,0.00,,---,0.00,VWS V14.01,2013-09-29 19:37:00,
2013-09-29 14:42:00,65.7,43.2,27.84,SW,232,3.0,3.0,44,0.00,,---,0.00,VWS V14.01,2013-09-29 19:42:00,
2013-09-29 14:47:00,65.7,44.9,27.83,SSW,211,6.0,6.0,47,0.00,,---,0.00,VWS V14.01,2013-09-29 19:47:00,
2013-09-29 14:49:00,65.8,43.3,27.83,WNW,296,7.0,8.0,44,0.00,,---,0.00,VWS V14.01,2013-09-29 19:49:00,
2013-09-29 14:54:00,66.2,42.5,27.83,WSW,242,1.0,10.0,42,0.00,,---,0.00,VWS V14.01,2013-09-29 19:54:00,
2013-09-29 14:59:00,66.4,43.2,27.83,SSW,194,2.0,10.0,43,0.00,,---,0.00,VWS V14.01,2013-09-29 19:59:00,
2013-09-29 15:04:00,66.4,43.2,27.83,West,280,1.0,5.0,43,0.00,,---,0.00,VWS V14.01,2013-09-29 20:04:00,
2013-09-29 15:09:00,66.5,43.3,27.83,WSW,242,3.0,12.0,43,0.00,,---,0.00,VWS V14.01,2013-09-29 20:09:00,
2013-09-29 15:15:00,66.4,44.4,27.83,SW,234,5.0,9.0,45,0.00,,---,0.00,VWS V14.01,2013-09-29 20:15:00,
2013-09-29 15:20:00,66.3,43.8,27.83,WSW,243,4.0,6.0,44,0.00,,---,0.00,VWS V14.01,2013-09-29 20:20:00,
2013-09-29 15:25:00,66.6,44.0,27.83,SW,234,5.0,11.0,44,0.00,,---,0.00,VWS V14.01,2013-09-29 20:25:00,
2013-09-29 15:30:00,66.5,43.9,27.83,SSW,194,1.0,7.0,44,0.00,,---,0.00,VWS V14.01,2013-09-29 20:30:00,
2013-09-29 15:35:00,66.3,43.8,27.83,WSW,237,3.0,5.0,44,0.00,,---,0.00,VWS V14.01,2013-09-29 20:35:00,
2013-09-29 15:40:00,66.5,47.8,27.83,SW,219,0.0,2.0,51,0.00,,---,0.00,VWS V14.01,2013-09-29 20:40:00,
2013-09-29 15:45:00,66.3,48.7,27.83,South,178,2.0,3.0,53,0.00,,---,0.00,VWS V14.01,2013-09-29 20:45:00,
2013-09-29 15:51:00,65.2,48.2,27.82,SSE,156,6.0,6.0,54,0.00,,---,0.00,VWS V14.01,2013-09-29 20:51:00,
2013-09-29 15:56:00,64.8,48.3,27.82,SSW,197,4.0,4.0,55,0.00,,---,0.00,VWS V14.01,2013-09-29 20:56:00,
2013-09-29 16:01:00,64.8,48.8,27.82,SE,146,2.0,5.0,56,0.00,,---,0.00,VWS V14.01,2013-09-29 21:01:00,
2013-09-29 16:06:00,64.5,49.4,27.82,SSE,148,0.0,3.0,58,0.00,,---,0.00,VWS V14.01,2013-09-29 21:06:00,
2013-09-29 16:11:00,63.9,48.4,27.82,SSE,155,1.0,7.0,57,0.00,,---,0.00,VWS V14.01,2013-09-29 21:11:00,
2013-09-29 16:16:00,63.3,48.7,27.82,SSE,157,1.0,5.0,59,0.00,,---,0.00,VWS V14.01,2013-09-29 21:16:00,
2013-09-29 16:21:00,63.2,48.2,27.82,SSE,151,1.0,1.0,58,0.00,,---,0.00,VWS V14.01,2013-09-29 21:21:00,
2013-09-29 16:26:00,63.1,47.6,27.82,South,169,2.0,5.0,57,0.00,,---,0.00,VWS V14.01,2013-09-29 21:26:00,
2013-09-29 16:32:00,63.2,48.7,27.83,SW,214,0.0,1.0,59,0.00,,---,0.00,VWS V14.01,2013-09-29 21:32:00,
2013-09-29 16:37:00,63.1,48.1,27.83,SSE,161,4.0,4.0,58,0.00,,---,0.00,VWS V14.01,2013-09-29 21:37:00,
2013-09-29 16:42:00,63.0,47.1,27.83,SSE,166,1.0,4.0,56,0.00,,---,0.00,VWS V14.01,2013-09-29 21:42:00,
2013-09-29 16:47:00,62.8,47.4,27.83,SW,217,0.0,4.0,57,0.00,,---,0.00,VWS V14.01,2013-09-29 21:47:00,
2013-09-29 16:52:00,62.8,47.4,27.83,South,176,7.0,7.0,57,0.00,,---,0.00,VWS V14.01,2013-09-29 21:52:00,
2013-09-29 16:57:00,62.3,46.9,27.83,SSE,162,3.0,3.0,57,0.00,,---,0.00,VWS V14.01,2013-09-29 21:57:00,
2013-09-29 17:03:00,61.9,47.4,27.83,SE,138,0.0,4.0,59,0.00,,---,0.00,VWS V14.01,2013-09-29 22:03:00,
2013-09-29 17:08:00,61.7,47.2,27.83,SSE,160,3.0,6.0,59,0.00,,---,0.00,VWS V14.01,2013-09-29 22:08:00,
2013-09-29 17:13:00,61.3,47.3,27.83,SSE,166,0.0,5.0,60,0.00,,---,0.00,VWS V14.01,2013-09-29 22:13:00,
2013-09-29 17:18:00,60.8,47.3,27.83,SSE,167,2.0,6.0,61,0.00,,---,0.00,VWS V14.01,2013-09-29 22:18:00,
2013-09-29 17:23:00,60.4,47.8,27.83,SSE,165,6.0,8.0,63,0.00,,---,0.00,VWS V14.01,2013-09-29 22:23:00,
2013-09-29 17:29:00,59.9,48.5,27.83,South,172,0.0,1.0,66,0.00,,---,0.00,VWS V14.01,2013-09-29 22:29:00,
2013-09-29 17:33:00,59.3,48.0,27.83,South,169,1.0,2.0,66,0.00,,---,0.00,VWS V14.01,2013-09-29 22:33:00,
2013-09-29 17:39:00,59.0,48.1,27.83,South,181,2.0,3.0,67,0.00,,---,0.00,VWS V14.01,2013-09-29 22:39:00,
2013-09-29 17:44:00,58.6,48.1,27.83,SE,142,7.0,7.0,68,0.00,,---,0.00,VWS V14.01,2013-09-29 22:44:00,
2013-09-29 17:49:00,58.2,47.7,27.83,SSE,167,0.0,3.0,68,0.00,,---,0.00,VWS V14.01,2013-09-29 22:49:00,
2013-09-29 17:54:00,58.0,47.1,27.83,South,169,3.0,5.0,67,0.00,,---,0.00,VWS V14.01,2013-09-29 22:54:00,
2013-09-29 17:59:00,57.7,47.2,27.83,SSW,192,0.0,5.0,68,0.00,,---,0.00,VWS V14.01,2013-09-29 22:59:00,
2013-09-29 18:05:00,57.4,47.3,27.82,SSW,193,0.0,0.0,69,0.00,,---,0.00,VWS V14.01,2013-09-29 23:05:00,
2013-09-29 18:10:00,57.1,47.4,27.82,SSE,168,0.0,0.0,70,0.00,,---,0.00,VWS V14.01,2013-09-29 23:10:00,
2013-09-29 18:15:00,56.9,47.6,27.82,SSW,213,5.0,5.0,71,0.00,,---,0.00,VWS V14.01,2013-09-29 23:15:00,
2013-09-29 18:20:00,56.7,47.0,27.82,South,190,1.0,4.0,70,0.00,,---,0.00,VWS V14.01,2013-09-29 23:20:00,
2013-09-29 18:25:00,56.6,47.7,27.82,South,173,0.0,1.0,72,0.00,,---,0.00,VWS V14.01,2013-09-29 23:25:00,
2013-09-29 18:30:00,56.3,47.0,27.82,South,177,4.0,4.0,71,0.00,,---,0.00,VWS V14.01,2013-09-29 23:30:00,
2013-09-29 18:35:00,56.1,47.2,27.82,SSE,167,3.0,3.0,72,0.00,,---,0.00,VWS V14.01,2013-09-29 23:35:00,
2013-09-29 18:40:00,55.8,47.3,27.82,South,175,3.0,3.0,73,0.00,,---,0.00,VWS V14.01,2013-09-29 23:40:00,
2013-09-29 18:46:00,55.6,47.1,27.82,SE,140,0.0,2.0,73,0.00,,---,0.00,VWS V14.01,2013-09-29 23:46:00,
2013-09-29 18:51:00,55.4,47.3,27.82,South,182,0.0,0.0,74,0.00,,---,0.00,VWS V14.01,2013-09-29 23:51:00,
2013-09-29 18:56:00,55.2,47.1,27.82,SSE,149,4.0,4.0,74,0.00,,---,0.00,VWS V14.01,2013-09-29 23:56:00,
2013-09-29 19:01:00,55.0,46.9,27.82,South,185,2.0,2.0,74,0.00,,---,0.00,VWS V14.01,2013-09-30 00:01:00,
2013-09-29 19:06:00,54.8,47.4,27.82,South,180,0.0,7.0,76,0.00,,---,0.00,VWS V14.01,2013-09-30 00:06:00,
2013-09-29 19:11:00,54.7,47.3,27.82,SSE,153,2.0,3.0,76,0.00,,---,0.00,VWS V14.01,2013-09-30 00:11:00,
2013-09-29 19:16:00,54.6,47.2,27.82,SE,144,3.0,5.0,76,0.00,,---,0.00,VWS V14.01,2013-09-30 00:16:00,
2013-09-29 19:21:00,54.5,47.1,27.83,SSE,162,2.0,5.0,76,0.00,,---,0.00,VWS V14.01,2013-09-30 00:21:00,
2013-09-29 19:26:00,54.4,47.0,27.83,SSW,198,1.0,3.0,76,0.00,,---,0.00,VWS V14.01,2013-09-30 00:26:00,
2013-09-29 19:31:00,54.3,47.2,27.83,South,180,0.0,1.0,77,0.00,,---,0.00,VWS V14.01,2013-09-30 00:31:00,
2013-09-29 19:36:00,54.3,47.2,27.83,South,169,5.0,8.0,77,0.00,,---,0.00,VWS V14.01,2013-09-30 00:36:00,
2013-09-29 19:41:00,54.3,46.9,27.83,SSE,160,4.0,6.0,76,0.00,,---,0.00,VWS V14.01,2013-09-30 00:41:00,
2013-09-29 19:46:00,54.1,47.1,27.83,South,178,3.0,5.0,77,0.00,,---,0.00,VWS V14.01,2013-09-30 00:46:00,
2013-09-29 19:51:00,54.0,47.0,27.83,SSE,164,0.0,4.0,77,0.00,,---,0.00,VWS V14.01,2013-09-30 00:51:00,
2013-09-29 19:57:00,54.0,47.0,27.83,South,175,4.0,5.0,77,0.00,,---,0.00,VWS V14.01,2013-09-30 00:57:00,
2013-09-29 20:02:00,53.9,46.9,27.83,SSE,159,1.0,2.0,77,0.00,,---,0.00,VWS V14.01,2013-09-30 01:02:00,
2013-09-29 20:07:00,53.9,46.9,27.83,SSE,157,0.0,2.0,77,0.00,,---,0.00,VWS V14.01,2013-09-30 01:07:00,
2013-09-29 20:12:00,53.8,46.8,27.83,South,173,5.0,6.0,77,0.00,,---,0.00,VWS V14.01,2013-09-30 01:12:00,
2013-09-29 20:17:00,53.6,46.9,27.83,SE,141,2.0,4.0,78,0.00,,---,0.00,VWS V14.01,2013-09-30 01:17:00,
2013-09-29 20:22:00,53.6,46.6,27.83,South,176,3.0,4.0,77,0.00,,---,0.00,VWS V14.01,2013-09-30 01:22:00,
2013-09-29 20:27:00,53.6,46.6,27.83,SSE,156,0.0,6.0,77,0.00,,---,0.00,VWS V14.01,2013-09-30 01:27:00,
2013-09-29 20:32:00,53.7,46.7,27.83,South,185,0.0,3.0,77,0.00,,---,0.00,VWS V14.01,2013-09-30 01:32:00,
2013-09-29 20:37:00,53.7,46.7,27.83,SSE,165,3.0,3.0,77,0.00,,---,0.00,VWS V14.01,2013-09-30 01:37:00,
2013-09-29 20:42:00,53.9,46.5,27.83,South,182,1.0,4.0,76,0.00,,---,0.00,VWS V14.01,2013-09-30 01:42:00,
2013-09-29 20:47:00,54.1,46.4,27.83,SSE,163,2.0,4.0,75,0.00,,---,0.00,VWS V14.01,2013-09-30 01:47:00,
2013-09-29 20:52:00,54.1,46.4,27.83,SW,214,1.0,2.0,75,0.00,,---,0.00,VWS V14.01,2013-09-30 01:52:00,
2013-09-29 20:58:00,54.1,46.4,27.83,SSE,165,0.0,0.0,75,0.00,,---,0.00,VWS V14.01,2013-09-30 01:58:00,
2013-09-29 21:03:00,54.2,46.5,27.83,South,171,0.0,3.0,75,0.00,,---,0.00,VWS V14.01,2013-09-30 02:03:00,
2013-09-29 21:08:00,54.2,46.5,27.83,South,181,1.0,1.0,75,0.00,,---,0.00,VWS V14.01,2013-09-30 02:08:00,
2013-09-29 21:13:00,54.3,46.2,27.83,SSE,164,5.0,5.0,74,0.00,,---,0.00,VWS V14.01,2013-09-30 02:13:00,
2013-09-29 21:18:00,54.5,46.4,27.83,SSE,150,2.0,8.0,74,0.00,,---,0.00,VWS V14.01,2013-09-30 02:18:00,
2013-09-29 21:23:00,54.8,46.7,27.83,South,184,1.0,6.0,74,0.00,,---,0.00,VWS V14.01,2013-09-30 02:23:00,
2013-09-29 21:28:00,54.8,46.7,27.83,SSE,160,0.0,4.0,74,0.00,,---,0.00,VWS V14.01,2013-09-30 02:28:00,
2013-09-29 21:33:00,54.9,46.4,27.83,SSE,161,2.0,5.0,73,0.00,,---,0.00,VWS V14.01,2013-09-30 02:33:00,
2013-09-29 21:38:00,55.0,46.5,27.83,South,176,2.0,5.0,73,0.00,,---,0.00,VWS V14.01,2013-09-30 02:38:00,
2013-09-29 21:43:00,55.1,46.6,27.83,South,184,2.0,2.0,73,0.00,,---,0.00,VWS V14.01,2013-09-30 02:43:00,
2013-09-29 21:48:00,55.2,46.7,27.83,South,169,0.0,0.0,73,0.00,,---,0.00,VWS V14.01,2013-09-30 02:48:00,
2013-09-29 21:54:00,55.2,46.3,27.83,SSW,208,3.0,6.0,72,0.00,,---,0.00,VWS V14.01,2013-09-30 02:54:00,
2013-09-29 21:59:00,55.2,46.0,27.83,SSE,166,1.0,10.0,71,0.00,,---,0.00,VWS V14.01,2013-09-30 02:59:00,
2013-09-29 22:04:00,55.2,46.7,27.83,SSE,153,3.0,3.0,73,0.00,,---,0.00,VWS V14.01,2013-09-30 03:04:00,
2013-09-29 22:09:00,55.1,47.0,27.83,SSE,158,2.0,2.0,74,0.00,,---,0.00,VWS V14.01,2013-09-30 03:09:00,
2013-09-29 22:14:00,55.0,46.2,27.83,South,177,2.0,5.0,72,0.00,,---,0.00,VWS V14.01,2013-09-30 03:14:00,
2013-09-29 22:19:00,55.0,46.5,27.83,SSW,195,3.0,5.0,73,0.00,,---,0.00,VWS V14.01,2013-09-30 03:19:00,
2013-09-29 22:24:00,55.0,46.5,27.83,SSE,167,1.0,2.0,73,0.00,,---,0.00,VWS V14.01,2013-09-30 03:24:00,
2013-09-29 22:30:00,55.0,46.5,27.83,SSE,159,4.0,4.0,73,0.00,,---,0.00,VWS V14.01,2013-09-30 03:30:00,
2013-09-29 22:35:00,55.0,46.9,27.83,SSW,202,5.0,9.0,74,0.00,,---,0.00,VWS V14.01,2013-09-30 03:35:00,
2013-09-29 22:40:00,55.0,46.5,27.83,South,175,2.0,5.0,73,0.00,,---,0.00,VWS V14.01,2013-09-30 03:40:00,
2013-09-29 22:45:00,55.0,46.5,27.83,South,190,4.0,4.0,73,0.00,,---,0.00,VWS V14.01,2013-09-30 03:45:00,
2013-09-29 22:50:00,54.9,46.8,27.83,South,185,0.0,3.0,74,0.00,,---,0.00,VWS V14.01,2013-09-30 03:50:00,
2013-09-29 22:55:00,54.8,46.7,27.83,SSE,154,0.0,1.0,74,0.00,,---,0.00,VWS V14.01,2013-09-30 03:55:00,
2013-09-29 23:01:00,54.7,46.6,27.83,SSW,194,3.0,7.0,74,0.00,,---,0.00,VWS V14.01,2013-09-30 04:01:00,
2013-09-29 23:03:00,54.7,46.6,27.83,SSE,152,3.0,3.0,74,0.00,,---,0.00,VWS V14.01,2013-09-30 04:03:00,
2013-09-29 23:04:00,54.8,47.0,27.83,SE,143,0.0,2.0,75,0.00,,---,0.00,VWS V14.01,2013-09-30 04:04:00,
2013-09-29 23:09:00,54.6,46.5,27.83,South,184,4.0,4.0,74,0.00,,---,0.00,VWS V14.01,2013-09-30 04:09:00,
2013-09-29 23:14:00,54.5,46.4,27.83,SSE,165,2.0,3.0,74,0.00,,---,0.00,VWS V14.01,2013-09-30 04:14:00,
2013-09-29 23:19:00,54.6,46.5,27.82,SSW,205,7.0,7.0,74,0.00,,---,0.00,VWS V14.01,2013-09-30 04:19:00,
2013-09-29 23:24:00,54.5,46.4,27.82,South,171,1.0,1.0,74,0.00,,---,0.00,VWS V14.01,2013-09-30 04:24:00,
2013-09-29 23:29:00,54.4,46.7,27.82,SSW,197,4.0,4.0,75,0.00,,---,0.00,VWS V14.01,2013-09-30 04:29:00,
2013-09-29 23:34:00,54.4,46.7,27.81,SSE,162,3.0,4.0,75,0.00,,---,0.00,VWS V14.01,2013-09-30 04:34:00,
2013-09-29 23:39:00,54.3,46.6,27.81,SSE,167,3.0,8.0,75,0.00,,---,0.00,VWS V14.01,2013-09-30 04:39:00,
2013-09-29 23:44:00,54.4,46.7,27.81,SSW,192,0.0,2.0,75,0.00,,---,0.00,VWS V14.01,2013-09-30 04:44:00,
2013-09-29 23:49:00,54.4,46.7,27.81,SSE,152,1.0,4.0,75,0.00,,---,0.00,VWS V14.01,2013-09-30 04:49:00,
2013-09-29 23:54:00,54.4,47.0,27.81,SSW,193,3.0,3.0,76,0.00,,---,0.00,VWS V14.01,2013-09-30 04:54:00,
2013-09-29 23:59:00,54.7,46.9,27.81,SE,146,0.0,3.0,75,0.00,,---,0.00,VWS V14.01,2013-09-30 04:59:00,